createdAt,value
2022-12-09T00:01:44.455Z,83.34
2022-12-09T00:04:12.784Z,83.05
2022-12-09T00:06:40.742Z,82.48
2022-12-09T00:09:14.078Z,82.75
2022-12-09T00:11:43.672Z,82.81
2022-12-09T00:14:12.698Z,82.99
2022-12-09T00:16:40.918Z,83.22
2022-12-09T00:19:08.888Z,84.06
2022-12-09T00:21:37.223Z,83.11
2022-12-09T00:24:08.068Z,82.99
2022-12-09T00:26:36.171Z,83.70
2022-12-09T00:29:05.545Z,83.25
2022-12-09T00:31:35.611Z,82.87
2022-12-09T00:34:07.504Z,82.67
2022-12-09T00:36:38.896Z,82.24
2022-12-09T00:39:07.214Z,82.14
2022-12-09T00:41:35.269Z,81.66
2022-12-09T00:44:03.735Z,82.05
2022-12-09T00:46:32.370Z,82.32
2022-12-09T00:49:00.629Z,81.55
2022-12-09T00:51:28.671Z,81.61
2022-12-09T00:53:56.845Z,81.90
2022-12-09T00:56:29.043Z,81.33
2022-12-09T00:58:58.643Z,81.91
2022-12-09T01:01:27.637Z,82.12
2022-12-09T01:03:57.021Z,82.62
2022-12-09T01:06:26.858Z,81.71
2022-12-09T01:08:55.506Z,81.81
2022-12-09T01:11:28.998Z,81.95
2022-12-09T01:14:06.242Z,81.79
2022-12-09T01:16:35.281Z,81.70
2022-12-09T01:19:06.884Z,82.59
2022-12-09T01:21:35.657Z,82.71
2022-12-09T01:24:10.397Z,82.27
2022-12-09T01:26:38.750Z,82.35
2022-12-09T01:29:06.822Z,82.07
2022-12-09T01:31:35.039Z,81.79
2022-12-09T01:34:04.478Z,81.54
2022-12-09T01:36:32.640Z,81.44
2022-12-09T01:39:01.368Z,81.31
2022-12-09T01:41:29.687Z,81.32
2022-12-09T01:44:11.709Z,81.54
2022-12-09T01:46:40.629Z,81.75
2022-12-09T01:49:12.086Z,81.67
2022-12-09T01:51:41.244Z,82.37
2022-12-09T01:54:09.734Z,81.31
2022-12-09T01:56:40.351Z,81.35
2022-12-09T01:59:14.739Z,82.03
2022-12-09T02:01:46.115Z,82.91
2022-12-09T02:04:14.437Z,82.48
2022-12-09T02:06:42.940Z,82.67
2022-12-09T02:09:12.773Z,82.16
2022-12-09T02:11:45.304Z,82.35
2022-12-09T02:14:27.909Z,81.86
2022-12-09T02:17:14.648Z,82.58
2022-12-09T02:20:09.476Z,83.00
2022-12-09T02:22:45.856Z,82.89
2022-12-09T02:25:53.957Z,82.59
2022-12-09T02:29:10.801Z,82.70
2022-12-09T02:32:00.525Z,82.34
2022-12-09T02:34:34.815Z,83.25
2022-12-09T02:37:16.425Z,83.31
2022-12-09T02:39:48.916Z,82.76
2022-12-09T02:42:19.306Z,83.14
2022-12-09T02:44:52.011Z,83.73
2022-12-09T02:47:27.729Z,83.75
2022-12-09T02:50:02.114Z,83.79
2022-12-09T02:52:33.770Z,83.69
2022-12-09T02:55:05.016Z,83.54
2022-12-09T03:00:58.459Z,83.91
2022-12-09T03:03:31.608Z,83.39
2022-12-09T03:06:10.154Z,83.49
2022-12-09T03:08:43.927Z,84.03
2022-12-09T03:11:16.058Z,83.77
2022-12-09T03:13:46.819Z,83.64
2022-12-09T03:16:26.859Z,83.87
2022-12-09T03:19:04.494Z,83.02
2022-12-09T03:21:37.035Z,83.37
2022-12-09T03:24:09.029Z,82.99
2022-12-09T03:26:39.052Z,82.67
2022-12-09T03:29:15.555Z,83.27
2022-12-09T03:31:45.211Z,82.57
2022-12-09T03:34:20.586Z,82.64
2022-12-09T03:36:52.079Z,82.84
2022-12-09T03:39:27.894Z,82.55
2022-12-09T03:42:00.141Z,82.74
2022-12-09T03:44:48.696Z,82.29
2022-12-09T03:47:17.228Z,82.85
2022-12-09T03:49:45.559Z,83.60
2022-12-09T03:52:37.538Z,83.56
2022-12-09T03:55:32.213Z,84.15
2022-12-09T03:58:03.686Z,84.13
2022-12-09T04:00:32.106Z,84.00
2022-12-09T04:03:00.637Z,83.32
2022-12-09T04:05:29.055Z,84.78
2022-12-09T04:07:57.330Z,84.46
2022-12-09T04:10:25.548Z,84.62
2022-12-09T04:12:53.539Z,84.20
2022-12-09T04:15:21.581Z,83.85
2022-12-09T04:17:49.806Z,83.43
2022-12-09T04:20:18.080Z,83.53
2022-12-09T04:22:46.301Z,84.70
2022-12-09T04:25:14.451Z,84.95
2022-12-09T04:27:42.362Z,83.89
2022-12-09T04:30:11.039Z,83.36
2022-12-09T04:32:40.155Z,83.78
2022-12-09T04:35:08.876Z,83.17
2022-12-09T04:37:37.971Z,83.66
2022-12-09T04:40:07.776Z,83.20
2022-12-09T04:42:36.216Z,83.23
2022-12-09T04:45:05.585Z,82.59
2022-12-09T04:47:34.763Z,82.55
2022-12-09T04:50:03.167Z,82.66
2022-12-09T04:52:31.132Z,82.26
2022-12-09T04:54:59.235Z,82.44
2022-12-09T04:57:27.221Z,82.99
2022-12-09T04:59:55.248Z,83.36
2022-12-09T05:02:23.505Z,82.35
2022-12-09T05:04:52.352Z,83.73
2022-12-09T05:07:20.503Z,83.38
2022-12-09T05:09:50.111Z,83.52
2022-12-09T05:12:18.467Z,83.07
2022-12-09T05:14:46.463Z,83.32
2022-12-09T05:17:14.642Z,83.32
2022-12-09T05:19:43.114Z,83.01
2022-12-09T05:22:11.247Z,83.21
2022-12-09T05:24:41.244Z,82.91
2022-12-09T05:27:09.321Z,83.45
2022-12-09T05:29:37.516Z,84.43
2022-12-09T05:32:05.783Z,83.02
2022-12-09T05:34:33.912Z,83.57
2022-12-09T05:37:02.401Z,84.33
2022-12-09T05:39:31.020Z,83.68
2022-12-09T05:41:59.423Z,84.04
2022-12-09T05:44:27.477Z,83.82
2022-12-09T05:46:55.667Z,83.97
2022-12-09T05:49:23.794Z,84.80
2022-12-09T05:51:52.085Z,84.47
2022-12-09T05:54:20.208Z,84.61
2022-12-09T05:56:49.064Z,84.61
2022-12-09T05:59:17.586Z,85.05
2022-12-09T06:01:45.861Z,86.14
2022-12-09T06:04:14.620Z,85.00
2022-12-09T06:06:43.451Z,85.27
2022-12-09T06:09:12.355Z,85.84
2022-12-09T06:11:42.564Z,84.79
2022-12-09T06:14:12.091Z,84.94
2022-12-09T06:16:40.490Z,84.76
2022-12-09T06:19:11.635Z,85.10
2022-12-09T06:21:41.084Z,85.14
2022-12-09T06:24:09.297Z,84.32
2022-12-09T06:26:37.559Z,84.79
2022-12-09T06:29:05.978Z,85.43
2022-12-09T06:31:34.254Z,84.15
2022-12-09T06:34:03.696Z,85.04
2022-12-09T06:36:32.272Z,88.38
2022-12-09T06:39:10.132Z,87.73
2022-12-09T06:41:41.583Z,87.49
2022-12-09T06:44:14.782Z,91.55
2022-12-09T06:46:47.938Z,92.45
2022-12-09T06:49:16.584Z,91.04
2022-12-09T06:51:44.888Z,90.14
2022-12-09T06:54:13.467Z,89.60
2022-12-09T06:56:41.916Z,88.79
2022-12-09T06:59:11.298Z,87.66
2022-12-09T07:01:40.081Z,86.48
2022-12-09T07:04:08.524Z,85.76
2022-12-09T07:06:42.684Z,85.69
2022-12-09T07:09:14.105Z,85.84
2022-12-09T07:11:43.291Z,85.83
2022-12-09T07:14:11.553Z,86.36
2022-12-09T07:16:39.949Z,87.29
2022-12-09T07:19:08.614Z,87.14
2022-12-09T07:21:36.633Z,87.97
2022-12-09T07:24:05.326Z,88.16
2022-12-09T07:26:33.908Z,88.32
2022-12-09T07:29:05.857Z,86.93
2022-12-09T07:31:35.455Z,85.92
2022-12-09T07:34:05.916Z,85.18
2022-12-09T07:36:36.692Z,84.85
2022-12-09T07:39:12.709Z,83.56
2022-12-09T07:41:41.295Z,83.19
2022-12-09T07:44:11.272Z,82.90
2022-12-09T07:46:39.774Z,83.22
2022-12-09T07:49:11.916Z,83.25
2022-12-09T07:51:40.899Z,82.90
2022-12-09T07:54:17.121Z,82.10
2022-12-09T07:56:45.670Z,81.90
2022-12-09T07:59:15.349Z,81.01
2022-12-09T08:01:45.532Z,80.94
2022-12-09T08:04:14.487Z,80.97
2022-12-09T08:06:42.843Z,80.71
2022-12-09T08:09:13.591Z,80.15
2022-12-09T08:11:42.551Z,79.72
2022-12-09T08:14:13.447Z,78.94
2022-12-09T08:16:43.521Z,78.29
2022-12-09T08:19:12.821Z,77.34
2022-12-09T08:21:42.435Z,77.02
2022-12-09T08:24:12.749Z,76.83
2022-12-09T08:26:42.100Z,76.26
2022-12-09T08:29:12.306Z,76.49
2022-12-09T08:31:43.795Z,76.34
2022-12-09T08:34:13.200Z,74.79
2022-12-09T08:36:42.440Z,74.60
2022-12-09T08:39:12.418Z,74.86
2022-12-09T08:41:41.182Z,74.97
2022-12-09T08:44:17.217Z,73.97
2022-12-09T08:46:50.141Z,74.26
2022-12-09T08:49:22.320Z,74.00
2022-12-09T08:51:53.871Z,73.60
2022-12-09T08:54:23.093Z,72.55
2022-12-09T08:56:55.159Z,71.45
2022-12-09T08:59:24.458Z,69.75
2022-12-09T09:01:52.776Z,69.39
2022-12-09T09:04:22.989Z,69.29
2022-12-09T09:06:52.486Z,68.59
2022-12-09T09:09:22.251Z,68.04
2022-12-09T09:11:50.989Z,67.06
2022-12-09T09:14:19.493Z,65.99
2022-12-09T09:16:48.077Z,63.59
2022-12-09T09:19:19.590Z,60.75
2022-12-09T09:21:48.181Z,59.97
2022-12-09T09:24:19.196Z,58.12
2022-12-09T09:26:48.508Z,55.81
2022-12-09T09:29:18.954Z,54.32
2022-12-09T09:31:50.388Z,54.47
2022-12-09T09:34:19.346Z,54.70
2022-12-09T09:36:49.281Z,54.28
2022-12-09T09:39:18.648Z,52.71
2022-12-09T09:42:08.091Z,53.89
2022-12-09T09:44:48.478Z,52.76
2022-12-09T09:47:23.428Z,52.81
2022-12-09T09:50:29.445Z,52.28
2022-12-09T09:52:58.404Z,50.78
2022-12-09T09:55:48.237Z,48.55
2022-12-09T09:58:45.776Z,44.18
2022-12-09T10:01:16.716Z,41.46
2022-12-09T10:04:08.966Z,40.35
2022-12-09T10:06:50.793Z,40.00
2022-12-09T10:09:57.632Z,40.57
2022-12-09T10:12:40.374Z,41.80
2022-12-09T10:15:19.791Z,46.01
2022-12-09T10:17:55.767Z,46.32
2022-12-09T10:20:28.928Z,48.85
2022-12-09T10:23:01.917Z,51.71
2022-12-09T10:25:36.617Z,52.46
2022-12-09T10:28:27.744Z,52.75
2022-12-09T10:30:57.365Z,54.30
2022-12-09T10:33:37.242Z,54.97
2022-12-09T10:36:07.779Z,56.08
2022-12-09T10:38:41.095Z,56.89
2022-12-09T10:41:40.935Z,57.58
2022-12-09T10:44:24.787Z,55.65
2022-12-09T10:47:05.272Z,55.32
2022-12-09T10:49:35.052Z,54.85
2022-12-09T10:52:05.538Z,55.41
2022-12-09T10:54:44.966Z,55.35
2022-12-09T10:57:13.545Z,55.33
2022-12-09T10:59:56.089Z,56.41
2022-12-09T11:02:24.772Z,55.49
2022-12-09T11:04:53.651Z,55.94
2022-12-09T11:07:26.142Z,56.01
2022-12-09T11:09:57.687Z,56.60
2022-12-09T11:12:32.092Z,56.34
2022-12-09T11:15:13.435Z,55.24
2022-12-09T11:17:59.702Z,56.34
2022-12-09T11:20:30.673Z,55.83
2022-12-09T11:23:18.895Z,55.38
2022-12-09T11:26:01.853Z,55.24
2022-12-09T11:28:36.158Z,54.11
2022-12-09T11:31:34.207Z,53.88
2022-12-09T11:34:15.385Z,51.98
2022-12-09T11:36:50.215Z,47.65
2022-12-09T11:39:31.599Z,45.28
2022-12-09T11:42:18.123Z,41.43
2022-12-09T11:45:02.255Z,39.93
2022-12-09T11:48:13.555Z,39.18
2022-12-09T11:50:32.757Z,42.23
2022-12-09T11:53:13.247Z,45.02
2022-12-09T11:55:51.515Z,47.33
2022-12-09T11:58:29.199Z,49.65
2022-12-09T12:01:13.496Z,50.27
2022-12-09T12:03:55.515Z,51.53
2022-12-09T12:06:42.082Z,52.96
2022-12-09T12:09:40.352Z,53.96
2022-12-09T12:12:15.031Z,55.14
2022-12-09T12:14:44.319Z,56.17
2022-12-09T12:17:32.546Z,55.58
2022-12-09T12:20:00.722Z,55.03
2022-12-09T12:22:54.540Z,55.13
2022-12-09T12:25:47.277Z,54.64
2022-12-09T12:28:26.402Z,54.95
2022-12-09T12:31:12.524Z,55.86
2022-12-09T12:36:51.227Z,55.92
2022-12-09T12:39:21.548Z,55.55
2022-12-09T12:41:49.533Z,55.71
2022-12-09T12:45:18.102Z,56.70
2022-12-09T12:48:12.070Z,57.76
2022-12-09T12:50:58.034Z,57.49
2022-12-09T12:53:47.380Z,58.40
2022-12-09T12:56:19.424Z,58.77
2022-12-09T12:59:13.328Z,58.56
2022-12-09T13:01:57.776Z,58.92
2022-12-09T13:04:51.266Z,59.79
2022-12-09T13:07:22.103Z,59.93
2022-12-09T13:09:56.647Z,60.84
2022-12-09T13:12:53.887Z,61.14
2022-12-09T13:15:32.482Z,61.63
2022-12-09T13:18:36.053Z,61.94
2022-12-09T13:21:06.503Z,61.93
2022-12-09T13:23:58.808Z,62.04
2022-12-09T13:26:47.690Z,62.04
2022-12-09T13:29:30.485Z,62.76
2022-12-09T13:32:19.892Z,63.25
2022-12-09T13:34:52.774Z,63.69
2022-12-09T13:37:36.726Z,64.23
2022-12-09T13:40:39.158Z,65.11
2022-12-09T13:43:12.700Z,65.51
2022-12-09T13:45:43.344Z,65.81
2022-12-09T13:48:16.482Z,66.06
2022-12-09T13:51:00.295Z,65.83
2022-12-09T13:53:35.299Z,65.90
2022-12-09T13:56:18.585Z,66.26
2022-12-09T13:59:21.847Z,66.48
2022-12-09T14:02:15.896Z,66.87
2022-12-09T14:05:04.096Z,67.41
2022-12-09T14:07:39.677Z,67.68
2022-12-09T14:10:44.192Z,68.03
2022-12-09T14:13:37.689Z,68.30
2022-12-09T14:16:16.696Z,68.50
2022-12-09T14:18:45.404Z,68.67
2022-12-09T14:21:19.388Z,68.54
2022-12-09T14:24:12.013Z,69.27
2022-12-09T14:26:42.622Z,69.45
2022-12-09T14:29:10.959Z,69.95
2022-12-09T14:31:56.676Z,70.65
2022-12-09T14:34:32.587Z,70.64
2022-12-09T14:37:30.240Z,71.03
2022-12-09T14:40:16.327Z,71.67
2022-12-09T14:42:59.974Z,72.50
2022-12-09T14:45:53.558Z,73.45
2022-12-09T14:48:34.603Z,73.62
2022-12-09T14:51:33.410Z,73.68
2022-12-09T14:54:33.339Z,73.43
2022-12-09T14:57:07.442Z,73.09
2022-12-09T14:59:35.945Z,72.78
2022-12-09T15:02:09.597Z,72.95
2022-12-09T15:04:40.242Z,73.54
2022-12-09T15:07:22.518Z,73.33
2022-12-09T15:10:02.218Z,73.07
2022-12-09T15:12:41.263Z,73.28
2022-12-09T15:15:12.128Z,73.80
2022-12-09T15:17:46.678Z,73.37
2022-12-09T15:20:23.726Z,74.27
2022-12-09T15:22:58.504Z,74.38
2022-12-09T15:25:27.149Z,74.06
2022-12-09T15:28:03.839Z,73.79
2022-12-09T15:30:37.309Z,73.65
2022-12-09T15:33:15.921Z,73.64
2022-12-09T15:35:54.822Z,73.69
2022-12-09T15:38:25.133Z,73.63
2022-12-09T15:41:15.377Z,73.59
2022-12-09T15:43:44.550Z,73.30
2022-12-09T15:46:13.409Z,73.30
2022-12-09T15:48:47.563Z,72.75
2022-12-09T15:51:22.086Z,73.45
2022-12-09T15:54:00.343Z,73.82
2022-12-09T15:56:37.304Z,73.71
2022-12-09T15:59:20.569Z,73.47
2022-12-09T16:01:51.652Z,73.69
2022-12-09T16:04:23.447Z,73.87
2022-12-09T16:06:51.779Z,73.82
2022-12-09T16:09:21.544Z,74.24
2022-12-09T16:11:52.787Z,74.18
2022-12-09T16:14:23.753Z,74.74
2022-12-09T16:17:00.425Z,75.39
2022-12-09T16:19:31.405Z,75.41
2022-12-09T16:22:03.486Z,75.43
2022-12-09T16:24:58.010Z,75.83
2022-12-09T16:27:25.137Z,75.67
2022-12-09T16:29:58.673Z,75.73
2022-12-09T16:32:34.436Z,76.05
2022-12-09T16:35:11.162Z,76.37
2022-12-09T16:37:42.533Z,76.37
2022-12-09T16:40:33.547Z,76.50
2022-12-09T16:43:16.477Z,77.08
2022-12-09T16:45:55.900Z,77.45
2022-12-09T16:48:25.835Z,77.75
2022-12-09T16:50:58.751Z,78.33
2022-12-09T16:53:31.614Z,78.13
2022-12-09T16:56:02.285Z,77.77
2022-12-09T16:58:34.017Z,77.75
2022-12-09T17:01:04.681Z,77.45
2022-12-09T17:03:43.911Z,77.44
2022-12-09T17:06:17.131Z,77.91
2022-12-09T17:08:45.734Z,78.25
2022-12-09T17:11:15.119Z,78.35
2022-12-09T17:13:43.916Z,78.15
2022-12-09T17:16:12.341Z,78.29
2022-12-09T17:18:41.315Z,78.39
2022-12-09T17:21:13.220Z,78.44
2022-12-09T17:23:42.397Z,78.53
2022-12-09T17:26:12.353Z,78.83
2022-12-09T17:28:42.332Z,79.19
2022-12-09T17:31:19.591Z,79.59
2022-12-09T17:33:48.875Z,79.87
2022-12-09T17:36:19.022Z,80.35
2022-12-09T17:38:48.137Z,81.17
2022-12-09T17:41:20.913Z,81.72
2022-12-09T17:43:49.817Z,82.81
2022-12-09T17:46:19.114Z,82.90
2022-12-09T17:48:47.947Z,82.72
2022-12-09T17:51:20.188Z,83.24
2022-12-09T17:53:50.627Z,83.25
2022-12-09T17:56:23.955Z,83.74
2022-12-09T17:59:03.311Z,83.39
2022-12-09T18:01:34.339Z,84.44
2022-12-09T18:04:09.325Z,84.20
2022-12-09T18:06:41.093Z,84.42
2022-12-09T18:09:15.529Z,83.94
2022-12-09T18:11:45.391Z,83.98
2022-12-09T18:14:15.114Z,83.83
2022-12-09T18:16:43.809Z,83.04
2022-12-09T18:19:18.063Z,83.66
2022-12-09T18:21:46.888Z,82.95
2022-12-09T18:24:15.331Z,83.28
2022-12-09T18:26:43.937Z,83.15
2022-12-09T18:29:13.585Z,83.00
2022-12-09T18:31:45.892Z,82.96
2022-12-09T18:34:15.185Z,82.67
2022-12-09T18:36:43.814Z,82.44
2022-12-09T18:39:12.444Z,82.89
2022-12-09T18:41:40.942Z,82.89
2022-12-09T18:44:10.664Z,83.77
2022-12-09T18:46:41.369Z,83.99
2022-12-09T18:49:16.422Z,83.55
2022-12-09T18:51:45.595Z,83.56
2022-12-09T18:54:21.108Z,83.66
2022-12-09T18:56:52.817Z,84.13
2022-12-09T18:59:23.685Z,84.59
2022-12-09T19:01:52.842Z,84.79
2022-12-09T19:04:22.652Z,85.36
2022-12-09T19:06:53.709Z,85.38
2022-12-09T19:09:24.771Z,85.06
2022-12-09T19:11:53.864Z,85.32
2022-12-09T19:14:23.680Z,85.52
2022-12-09T19:16:53.298Z,85.93
2022-12-09T19:19:24.905Z,86.35
2022-12-09T19:21:54.295Z,85.98
2022-12-09T19:24:32.969Z,86.23
2022-12-09T19:27:01.669Z,86.34
2022-12-09T19:29:30.067Z,86.50
2022-12-09T19:31:58.818Z,86.10
2022-12-09T19:34:29.696Z,86.35
2022-12-09T19:37:00.583Z,85.52
2022-12-09T19:39:31.675Z,85.76
2022-12-09T19:42:01.560Z,85.47
2022-12-09T19:44:59.439Z,86.37
2022-12-09T19:47:19.157Z,86.03
2022-12-09T19:49:47.671Z,86.08
2022-12-09T19:52:16.524Z,86.26
2022-12-09T19:54:45.214Z,86.03
2022-12-09T19:57:13.761Z,86.04
2022-12-09T19:59:42.643Z,85.93
2022-12-09T20:02:12.429Z,86.18
2022-12-09T20:04:50.062Z,86.14
2022-12-09T20:07:20.534Z,85.62
2022-12-09T20:09:49.371Z,86.28
2022-12-09T20:12:17.964Z,86.02
2022-12-09T20:14:46.708Z,85.70
2022-12-09T20:17:17.733Z,85.48
2022-12-09T20:19:47.169Z,85.54
2022-12-09T20:22:15.636Z,85.72
2022-12-09T20:24:44.600Z,85.04
2022-12-09T20:27:13.105Z,84.72
2022-12-09T20:29:41.697Z,84.62
2022-12-09T20:32:10.559Z,84.97
2022-12-09T20:34:39.434Z,84.44
2022-12-09T20:37:08.382Z,84.34
2022-12-09T20:39:36.770Z,85.05
2022-12-09T20:42:05.102Z,84.92
2022-12-09T20:44:33.665Z,84.48
2022-12-09T20:47:02.161Z,85.48
2022-12-09T20:49:31.107Z,85.48
2022-12-09T20:51:59.402Z,85.42
2022-12-09T20:54:27.642Z,86.40
2022-12-09T20:56:56.068Z,85.74
2022-12-09T20:59:24.329Z,86.08
2022-12-09T21:01:54.503Z,86.84
2022-12-09T21:04:23.258Z,86.38
2022-12-09T21:06:51.581Z,86.56
2022-12-09T21:09:22.494Z,87.07
2022-12-09T21:11:50.745Z,87.58
2022-12-09T21:14:20.066Z,87.49
2022-12-09T21:16:50.821Z,87.02
2022-12-09T21:19:24.999Z,87.14
2022-12-09T21:21:54.716Z,87.11
2022-12-09T21:24:24.457Z,87.50
2022-12-09T21:26:55.601Z,88.13
2022-12-09T21:29:31.264Z,87.21
2022-12-09T21:32:01.472Z,88.38
2022-12-09T21:34:30.165Z,87.74
2022-12-09T21:36:59.033Z,87.03
2022-12-09T21:39:28.279Z,87.19
2022-12-09T21:41:56.396Z,86.41
2022-12-09T21:44:25.926Z,86.64
2022-12-09T21:46:54.871Z,86.02
2022-12-09T21:49:22.805Z,86.19
2022-12-09T21:51:50.993Z,85.69
2022-12-09T21:54:19.020Z,85.98
2022-12-09T21:56:47.935Z,86.00
2022-12-09T21:59:16.191Z,85.69
2022-12-09T22:01:44.472Z,85.87
2022-12-09T22:04:16.639Z,85.91
2022-12-09T22:06:50.597Z,85.50
2022-12-09T22:09:21.181Z,85.66
2022-12-09T22:11:49.813Z,85.46
2022-12-09T22:14:18.026Z,85.21
2022-12-09T22:16:46.631Z,84.65
2022-12-09T22:19:17.917Z,85.25
2022-12-09T22:21:46.687Z,86.01
2022-12-09T22:24:15.798Z,85.29
2022-12-09T22:26:45.414Z,86.16
2022-12-09T22:29:14.560Z,86.88
2022-12-09T22:31:43.499Z,86.88
2022-12-09T22:34:14.816Z,87.09
2022-12-09T22:36:43.237Z,87.21
2022-12-09T22:39:14.842Z,86.60
2022-12-09T22:41:43.973Z,87.77
2022-12-09T22:44:14.100Z,87.96
2022-12-09T22:46:42.520Z,88.08
2022-12-09T22:49:12.243Z,88.36
2022-12-09T22:51:41.686Z,88.54
2022-12-09T22:54:10.455Z,87.98
2022-12-09T22:56:40.385Z,88.20
2022-12-09T22:59:09.423Z,87.94
2022-12-09T23:01:38.720Z,86.82
2022-12-09T23:04:08.301Z,86.60
2022-12-09T23:06:38.637Z,85.99
2022-12-09T23:09:09.553Z,85.47
2022-12-09T23:11:37.944Z,85.10
2022-12-09T23:14:05.884Z,85.59
2022-12-09T23:16:34.024Z,84.65
2022-12-09T23:19:02.243Z,85.16
2022-12-09T23:21:33.746Z,84.82
2022-12-09T23:24:05.779Z,84.32
2022-12-09T23:26:39.675Z,84.52
2022-12-09T23:29:12.325Z,84.09
2022-12-09T23:31:41.239Z,83.83
2022-12-09T23:34:11.640Z,84.01
2022-12-09T23:36:42.174Z,83.79
2022-12-09T23:39:14.052Z,83.68
2022-12-09T23:41:43.691Z,83.57
2022-12-09T23:44:14.994Z,83.73
2022-12-09T23:46:43.405Z,83.23
2022-12-09T23:49:11.347Z,83.28
2022-12-09T23:51:41.705Z,83.86
2022-12-09T23:54:11.151Z,83.71
2022-12-09T23:56:40.663Z,84.59
2022-12-09T23:59:11.420Z,85.37
